Flight Track Log - Related Links

Times and Time Zones

All times are in EDT time to prevent confusion due to time zone crossing. See the CONN400 flight status page for this flight to view local times or setup timezone preferences in your user account.


Time Position Orientation Groundspeed Altitude Reporting Facility
EDT Latitude Longitude Course Direction KTS MPH feet Rate Location/Type
Mon 08:31:35 PM 28.7833 -81.2167 360° North 86 99 400  Level Orlando TRACON
Mon 08:32:00 PM 28.7833 -81.2167 60° Northeast 106 122 600 643 Climbing Orlando TRACON
Mon 08:32:59 PM 28.8000 -81.1833 60° Northeast 117 135 1,300 655 Climbing Orlando TRACON
Mon 08:33:59 PM 28.8333 -81.1500 41° Northeast 118 136 1,900 600 Climbing Orlando TRACON
Mon 08:34:59 PM 28.8500 -81.1333 41° Northeast 110 127 2,500 545 Climbing Orlando TRACON
Mon 08:36:00 PM 28.8833 -81.1167 24° Northeast 107 123 3,000 298 Climbing Orlando TRACON
Mon 08:37:00 PM 28.8833 -81.1500 270° West 110 127 3,100  Climbing Orlando TRACON
Mon 08:38:00 PM 28.9000 -81.1833 300° West 125 144 3,000 -50 Descending Orlando TRACON
Mon 08:39:00 PM 28.9167 -81.2167 300° West 115 132 3,000  Level Orlando TRACON
Mon 08:40:00 PM 28.9167 -81.2500 270° West 116 133 3,000 50 Level Orlando TRACON
Mon 08:41:00 PM 28.9167 -81.2833 270° West 117 135 3,100  Climbing Orlando TRACON
Mon 08:42:00 PM 28.9333 -81.3333 291° West 125 144 3,000 -50 Descending Orlando TRACON
Mon 08:43:00 PM 28.9333 -81.3667 270° West 124 143 3,000  Level Orlando TRACON
Mon 08:44:00 PM 28.9000 -81.3833 204° Southwest 130 150 3,000  Level Orlando TRACON
Mon 08:45:00 PM 28.8667 -81.3667 156° South 138 159 3,000  Level Orlando TRACON
Mon 08:46:00 PM 28.8833 -81.3500 41° Northeast 143 165 3,000  Level Orlando TRACON
Mon 08:47:00 PM 28.9000 -81.3667 319° Northwest 126 145 3,000  Level Orlando TRACON
Mon 08:48:00 PM 28.9333 -81.3667 360° North 139 160 3,000  Level Orlando TRACON
Mon 08:49:00 PM 28.9167 -81.3333 120° Southeast 148 170 3,000  Level Orlando TRACON
Mon 08:50:00 PM 28.8833 -81.3333 180° South 131 151 3,000  Level Orlando TRACON
Mon 08:51:00 PM 28.9000 -81.3667 300° West 128 147 3,000  Level Orlando TRACON
Mon 08:52:00 PM 28.9333 -81.3667 360° North 136 157 3,000 -50 Level Orlando TRACON
Mon 08:53:00 PM 28.9167 -81.3333 120° Southeast 146 168 2,900  Descending Orlando TRACON
Mon 08:54:00 PM 28.8833 -81.3500 204° Southwest 131 151 3,000 50 Climbing Orlando TRACON
Mon 08:55:00 PM 28.9000 -81.3667 319° Northwest 128 147 3,000  Level Orlando TRACON
Mon 08:56:00 PM 28.9333 -81.3667 360° North 121 139 3,000  Level Orlando TRACON
Mon 08:57:00 PM 28.9333 -81.3500 90° East 143 165 3,000 50 Level Orlando TRACON
Mon 08:58:00 PM 28.8833 -81.3500 180° South 125 144 3,100 50 Climbing Orlando TRACON
Mon 08:59:00 PM 28.8833 -81.3833 270° West 121 139 3,100 -50 Level Orlando TRACON
Mon 09:00:00 PM 28.9167 -81.3833 360° North 122 140 3,000 -50 Descending Orlando TRACON
Mon 09:01:01 PM 28.9333 -81.3500 60° Northeast 139 160 3,000  Level Orlando TRACON
Mon 09:02:01 PM 28.9000 -81.3500 180° South 122 140 3,000  Level Orlando TRACON
Mon 09:03:01 PM 28.8833 -81.3500 180° South 123 142 3,000  Level Orlando TRACON
Mon 09:04:01 PM 28.9000 -81.3667 319° Northwest 125 144 3,000  Level Orlando TRACON
Mon 09:05:01 PM 28.9333 -81.3667 360° North 132 152 3,000  Level Orlando TRACON
Mon 09:06:01 PM 28.9167 -81.3333 120° Southeast 134 154 3,000  Level Orlando TRACON
Mon 09:07:01 PM 28.8833 -81.3500 204° Southwest 126 145 3,000  Level Orlando TRACON
Mon 09:08:01 PM 28.9000 -81.3667 319° Northwest 120 138 3,000  Level Orlando TRACON
Mon 09:09:01 PM 28.9333 -81.3667 360° North 119 137 3,000 50 Level Orlando TRACON
Mon 09:10:01 PM 28.9333 -81.3333 90° East 138 159 3,100  Climbing Orlando TRACON
Mon 09:11:01 PM 28.8833 -81.3167 164° South 131 151 3,000 -50 Descending Orlando TRACON
Mon 09:12:01 PM 28.8833 -81.2833 90° East 127 146 3,000  Level Orlando TRACON
Mon 09:13:01 PM 28.8667 -81.2333 111° Southeast 135 155 3,000  Level Orlando TRACON
Mon 09:14:01 PM 28.8500 -81.2000 120° Southeast 135 155 3,000 -200 Level Orlando TRACON
Mon 09:15:01 PM 28.8333 -81.1667 120° Southeast 135 155 2,600 -500 Descending Orlando TRACON
Mon 09:16:01 PM 28.8333 -81.1167 90° East 129 148 2,000 -300 Descending Orlando TRACON
Mon 09:17:01 PM 28.8333 -81.0833 90° East 134 154 2,000  Level Orlando TRACON
Mon 09:18:01 PM 28.8000 -81.0667 156° South 123 142 2,000  Level Orlando TRACON
Mon 09:19:01 PM 28.7833 -81.0833 221° Southwest 110 127 2,000 -200 Level Orlando TRACON
Mon 09:20:01 PM 28.7833 -81.1167 270° West 108 124 1,600 -400 Descending Orlando TRACON
Mon 09:21:01 PM 28.7833 -81.1500 270° West 93 107 1,200 -400 Descending Orlando TRACON
Mon 09:22:01 PM 28.7833 -81.1667 270° West 85 98 800 -97 Descending Orlando TRACON
Mon 09:24:07 PM 28.7833 -81.2333 270° West 96 110 900 200 Climbing Orlando TRACON
Mon 09:25:01 PM 28.7833 -81.2667 270° West 102 117 1,400 579 Climbing Orlando TRACON
Mon 09:26:01 PM 28.8000 -81.2833 319° Northwest 98 113 2,000 333 Climbing Orlando TRACON
Mon 09:27:07 PM 28.8167 -81.3167 300° West 116 133 2,100 381 Climbing Orlando TRACON
Mon 09:28:07 PM 28.8500 -81.3167 360° North 124 143 2,800 700 Climbing Orlando TRACON

Login

Don't have an account? Register now (free) for customized features, flight alerts, and more!